createdAt,value
2023-08-30T00:02:37.871Z,0.90
2023-08-30T00:05:41.031Z,0.90
2023-08-30T00:08:42.595Z,1.05
2023-08-30T00:11:44.199Z,0.90
2023-08-30T00:14:45.785Z,0.93
2023-08-30T00:17:47.401Z,0.80
2023-08-30T00:20:48.998Z,0.95
2023-08-30T00:23:50.550Z,0.90
2023-08-30T00:26:52.204Z,0.93
2023-08-30T00:29:53.990Z,1.00
2023-08-30T00:32:55.636Z,0.80
2023-08-30T00:36:00.551Z,0.93
2023-08-30T00:39:03.264Z,0.90
2023-08-30T00:42:08.269Z,1.00
2023-08-30T00:45:10.807Z,1.00
2023-08-30T00:48:13.276Z,0.90
2023-08-30T00:51:15.181Z,0.80
2023-08-30T00:54:17.713Z,0.95
2023-08-30T00:57:19.398Z,0.93
2023-08-30T01:00:20.957Z,0.90
2023-08-30T01:03:23.531Z,0.88
2023-08-30T01:06:25.116Z,0.90
2023-08-30T01:09:26.968Z,0.90
2023-08-30T01:12:40.995Z,0.90
2023-08-30T01:15:44.035Z,0.90
2023-08-30T01:18:46.291Z,1.00
2023-08-30T01:21:57.422Z,0.98
2023-08-30T01:25:16.368Z,0.90
2023-08-30T01:28:21.987Z,0.90
2023-08-30T01:31:24.457Z,0.95
2023-08-30T01:34:26.817Z,0.80
2023-08-30T01:37:29.566Z,0.90
2023-08-30T01:40:37.710Z,0.90
2023-08-30T01:43:40.155Z,0.90
2023-08-30T01:46:42.111Z,1.00
2023-08-30T01:49:44.684Z,0.90
2023-08-30T01:52:47.513Z,0.80
2023-08-30T01:55:49.224Z,0.93
2023-08-30T01:58:50.950Z,0.90
2023-08-30T02:01:52.793Z,0.80
2023-08-30T02:04:54.423Z,0.80
2023-08-30T02:08:13.981Z,0.80
2023-08-30T02:11:22.693Z,1.00
2023-08-30T02:14:27.251Z,0.90
2023-08-30T02:17:30.823Z,1.00
2023-08-30T02:20:33.328Z,0.88
2023-08-30T02:23:34.869Z,0.90
2023-08-30T02:26:36.566Z,1.20
2023-08-30T02:29:38.877Z,0.90
2023-08-30T02:32:41.617Z,0.80
2023-08-30T02:35:43.931Z,0.90
2023-08-30T02:38:45.488Z,1.00
2023-08-30T02:41:50.298Z,1.00
2023-08-30T02:44:51.887Z,0.80
2023-08-30T02:47:57.307Z,0.90
2023-08-30T02:50:58.940Z,0.90
2023-08-30T02:54:00.618Z,0.98
2023-08-30T02:57:02.301Z,1.00
2023-08-30T03:00:06.941Z,0.98
2023-08-30T03:03:08.672Z,0.90
2023-08-30T03:06:10.317Z,1.00
2023-08-30T03:09:12.818Z,0.82
2023-08-30T03:12:14.377Z,0.90
2023-08-30T03:15:16.023Z,0.93
2023-08-30T03:18:17.633Z,0.90
2023-08-30T03:21:19.270Z,0.90
2023-08-30T03:24:20.783Z,0.90
2023-08-30T03:27:22.717Z,0.98
2023-08-30T03:30:24.410Z,1.00
2023-08-30T03:33:26.356Z,0.90
2023-08-30T03:36:27.957Z,0.90
2023-08-30T03:39:29.880Z,0.90
2023-08-30T03:42:31.479Z,0.98
2023-08-30T03:45:36.983Z,0.75
2023-08-30T03:48:38.948Z,0.90
2023-08-30T03:51:40.635Z,0.90
2023-08-30T03:54:42.178Z,0.82
2023-08-30T03:57:43.781Z,0.80
2023-08-30T04:00:45.688Z,0.93
2023-08-30T04:03:47.342Z,0.90
2023-08-30T04:06:49.058Z,0.75
2023-08-30T04:09:51.580Z,0.85
2023-08-30T04:12:53.114Z,0.93
2023-08-30T04:15:54.794Z,0.80
2023-08-30T04:18:56.437Z,0.85
2023-08-30T04:21:58.065Z,0.80
2023-08-30T04:24:59.641Z,1.00
2023-08-30T04:28:03.917Z,0.98
2023-08-30T04:31:05.556Z,0.80
2023-08-30T04:34:07.199Z,0.95
2023-08-30T04:37:08.736Z,0.90
2023-08-30T04:40:11.309Z,0.90
2023-08-30T04:43:13.351Z,1.00
2023-08-30T04:46:14.964Z,1.00
2023-08-30T04:49:17.062Z,1.00
2023-08-30T04:52:18.968Z,0.80
2023-08-30T04:55:20.736Z,1.00
2023-08-30T04:58:22.828Z,0.90
2023-08-30T05:01:24.421Z,1.00
2023-08-30T05:04:29.804Z,0.97
2023-08-30T05:07:31.438Z,0.90
2023-08-30T05:10:33.521Z,0.90
2023-08-30T05:13:35.081Z,0.93
2023-08-30T05:16:37.059Z,0.95
2023-08-30T05:19:38.649Z,1.00
2023-08-30T05:22:40.658Z,0.90
2023-08-30T05:25:42.205Z,0.90
2023-08-30T05:28:44.405Z,0.90
2023-08-30T05:31:46.117Z,0.80
2023-08-30T05:35:07.004Z,0.90
2023-08-30T05:38:24.087Z,1.10
2023-08-30T05:41:43.236Z,0.93
2023-08-30T05:44:44.806Z,0.90
2023-08-30T05:47:46.537Z,1.10
2023-08-30T05:50:48.182Z,0.90
2023-08-30T05:53:49.885Z,0.90
2023-08-30T05:56:51.675Z,0.90
2023-08-30T05:59:53.711Z,0.98
2023-08-30T06:02:55.291Z,0.80
2023-08-30T06:05:56.936Z,0.80
2023-08-30T06:08:58.819Z,0.90
2023-08-30T06:12:00.719Z,0.90
2023-08-30T06:15:02.281Z,0.90
2023-08-30T06:18:04.608Z,1.00
2023-08-30T06:21:06.321Z,0.90
2023-08-30T06:24:08.031Z,0.82
2023-08-30T06:27:09.715Z,0.90
2023-08-30T06:30:12.310Z,0.90
2023-08-30T06:33:13.887Z,0.90
2023-08-30T06:36:17.973Z,0.85
2023-08-30T06:39:19.761Z,1.10
2023-08-30T06:42:21.624Z,1.00
2023-08-30T06:45:23.141Z,0.90
2023-08-30T06:48:24.991Z,0.90
2023-08-30T06:51:26.552Z,0.85
2023-08-30T06:54:28.225Z,0.80
2023-08-30T06:57:29.788Z,0.80
2023-08-30T07:00:31.433Z,0.90
2023-08-30T07:03:33.010Z,1.00
2023-08-30T07:06:34.709Z,0.90
2023-08-30T07:09:36.239Z,0.90
2023-08-30T07:12:37.910Z,0.90
2023-08-30T07:15:41.069Z,0.80
2023-08-30T07:18:42.797Z,1.00
2023-08-30T07:21:44.474Z,1.00
2023-08-30T07:24:46.070Z,1.00
2023-08-30T07:27:47.665Z,1.00
2023-08-30T07:30:49.304Z,1.23
2023-08-30T07:33:50.879Z,1.20
2023-08-30T07:36:55.882Z,1.00
2023-08-30T07:39:57.417Z,0.98
2023-08-30T07:43:00.078Z,1.65
2023-08-30T07:46:01.807Z,1.40
2023-08-30T07:49:03.813Z,1.55
2023-08-30T07:52:05.905Z,1.80
2023-08-30T07:55:07.759Z,1.50
2023-08-30T07:58:11.366Z,1.30
2023-08-30T08:01:13.219Z,1.60
2023-08-30T08:04:14.790Z,1.50
2023-08-30T08:07:16.785Z,1.50
2023-08-30T08:10:18.454Z,1.40
2023-08-30T08:13:20.228Z,1.60
2023-08-30T08:16:21.904Z,1.45
2023-08-30T08:19:26.000Z,1.25
2023-08-30T08:22:27.996Z,1.40
2023-08-30T08:25:29.956Z,1.48
2023-08-30T08:28:31.545Z,1.60
2023-08-30T08:31:33.217Z,1.40
2023-08-30T08:34:34.748Z,1.80
2023-08-30T08:37:36.381Z,1.50
2023-08-30T08:40:42.490Z,1.55
2023-08-30T08:43:46.110Z,1.50
2023-08-30T08:46:49.169Z,1.42
2023-08-30T08:49:52.200Z,1.33
2023-08-30T08:52:59.979Z,1.45
2023-08-30T08:56:03.089Z,1.52
2023-08-30T08:59:07.605Z,1.70
2023-08-30T09:02:12.954Z,1.50
2023-08-30T09:05:15.639Z,1.65
2023-08-30T09:08:17.941Z,1.50
2023-08-30T09:11:19.534Z,1.67
2023-08-30T09:14:21.265Z,1.67
2023-08-30T09:17:23.000Z,1.38
2023-08-30T09:20:24.647Z,1.80
2023-08-30T09:23:26.928Z,1.50
2023-08-30T09:26:29.357Z,1.40
2023-08-30T09:29:30.933Z,1.50
2023-08-30T09:32:32.593Z,1.70
2023-08-30T09:35:44.458Z,1.60
2023-08-30T09:38:50.040Z,1.77
2023-08-30T09:41:52.061Z,1.80
2023-08-30T09:44:53.840Z,2.20
2023-08-30T09:47:55.493Z,1.80
2023-08-30T09:50:59.424Z,1.80
2023-08-30T09:54:06.850Z,1.90
2023-08-30T09:57:09.932Z,1.80
2023-08-30T10:00:15.330Z,2.20
2023-08-30T10:03:30.430Z,1.92
2023-08-30T10:09:48.665Z,2.00
2023-08-30T10:13:07.964Z,1.90
2023-08-30T10:16:17.290Z,1.98
2023-08-30T10:19:26.851Z,1.70
2023-08-30T10:22:28.968Z,1.98
2023-08-30T10:25:33.007Z,1.90
2023-08-30T10:28:36.506Z,1.80
2023-08-30T10:31:40.758Z,1.60
2023-08-30T10:34:49.341Z,1.70
2023-08-30T10:37:58.334Z,1.80
2023-08-30T10:41:09.544Z,1.85
2023-08-30T10:44:15.630Z,1.90
2023-08-30T10:47:30.698Z,1.60
2023-08-30T10:50:34.414Z,1.70
2023-08-30T10:53:36.102Z,1.60
2023-08-30T10:56:49.848Z,1.90
2023-08-30T11:00:14.720Z,1.83
2023-08-30T11:03:16.712Z,1.80
2023-08-30T11:06:18.570Z,2.10
2023-08-30T11:09:22.548Z,1.73
2023-08-30T11:12:24.516Z,1.80
2023-08-30T11:15:27.860Z,1.70
2023-08-30T11:18:29.356Z,2.22
2023-08-30T11:21:33.197Z,1.70
2023-08-30T11:24:35.064Z,1.70
2023-08-30T11:27:36.752Z,1.60
2023-08-30T11:30:41.601Z,1.70
2023-08-30T11:33:51.249Z,1.60
2023-08-30T11:36:53.399Z,1.90
2023-08-30T11:39:56.986Z,1.60
2023-08-30T11:42:58.607Z,1.73
2023-08-30T11:46:00.285Z,1.70
2023-08-30T11:49:03.618Z,1.83
2023-08-30T11:52:05.606Z,1.60
2023-08-30T11:55:08.158Z,2.00
2023-08-30T11:58:09.758Z,1.90
2023-08-30T12:01:12.434Z,1.70
2023-08-30T12:04:14.033Z,1.65
2023-08-30T12:07:26.131Z,1.75
2023-08-30T12:10:29.970Z,1.75
2023-08-30T12:13:34.137Z,2.00
2023-08-30T12:16:37.010Z,1.75
2023-08-30T12:19:38.693Z,2.03
2023-08-30T12:22:40.823Z,1.98
2023-08-30T12:25:42.363Z,1.90
2023-08-30T12:28:46.847Z,1.90
2023-08-30T12:31:48.411Z,1.90
2023-08-30T12:34:49.931Z,1.88
2023-08-30T12:37:51.521Z,1.88
2023-08-30T12:40:55.044Z,1.98
2023-08-30T12:43:56.530Z,2.13
2023-08-30T12:46:58.140Z,2.25
2023-08-30T12:49:59.613Z,1.60
2023-08-30T12:53:01.093Z,1.90
2023-08-30T12:56:02.616Z,1.88
2023-08-30T12:59:04.259Z,2.13
2023-08-30T13:02:06.585Z,1.98
2023-08-30T13:05:08.722Z,2.13
2023-08-30T13:08:10.265Z,1.95
2023-08-30T13:11:11.780Z,2.20
2023-08-30T13:14:13.283Z,2.05
2023-08-30T13:17:15.019Z,2.00
2023-08-30T13:20:16.551Z,2.00
2023-08-30T13:23:18.059Z,2.03
2023-08-30T13:26:19.592Z,1.98
2023-08-30T13:29:21.611Z,2.20
2023-08-30T13:32:23.118Z,2.20
2023-08-30T13:35:24.686Z,1.98
2023-08-30T13:38:26.593Z,2.10
2023-08-30T13:41:28.198Z,2.05
2023-08-30T13:44:29.721Z,2.25
2023-08-30T13:47:31.236Z,2.00
2023-08-30T13:50:32.968Z,2.10
2023-08-30T13:53:34.508Z,2.10
2023-08-30T13:56:39.021Z,2.20
2023-08-30T13:59:40.555Z,2.35
2023-08-30T14:02:42.095Z,2.10
2023-08-30T14:05:45.385Z,1.98
2023-08-30T14:08:46.947Z,2.20
2023-08-30T14:11:48.618Z,1.90
2023-08-30T14:14:50.380Z,2.03
2023-08-30T14:17:51.911Z,2.53
2023-08-30T14:20:57.267Z,2.22
2023-08-30T14:23:58.804Z,1.97
2023-08-30T14:27:02.034Z,2.00
2023-08-30T14:30:03.795Z,1.88
2023-08-30T14:33:05.458Z,2.05
2023-08-30T14:36:11.435Z,2.10
2023-08-30T14:39:13.180Z,1.95
2023-08-30T14:42:14.711Z,2.00
2023-08-30T14:45:16.230Z,2.05
2023-08-30T14:48:18.204Z,1.90
2023-08-30T14:51:19.987Z,1.95
2023-08-30T14:54:21.490Z,2.20
2023-08-30T14:57:23.794Z,4.13
2023-08-30T15:00:25.977Z,4.57
2023-08-30T15:03:27.685Z,6.15
2023-08-30T15:06:29.333Z,6.57
2023-08-30T15:09:31.520Z,7.38
2023-08-30T15:12:33.194Z,7.15
2023-08-30T15:15:34.772Z,6.93
2023-08-30T15:18:36.950Z,5.93
2023-08-30T15:21:38.641Z,6.75
2023-08-30T15:24:40.188Z,6.40
2023-08-30T15:27:41.768Z,5.50
2023-08-30T15:30:46.941Z,5.70
2023-08-30T15:33:48.940Z,5.50
2023-08-30T15:36:50.515Z,5.00
2023-08-30T15:40:02.485Z,4.60
2023-08-30T15:43:06.584Z,5.20
2023-08-30T15:46:09.039Z,5.07
2023-08-30T15:49:10.654Z,5.10
2023-08-30T15:52:12.264Z,5.25
2023-08-30T15:55:13.897Z,5.38
2023-08-30T15:58:16.427Z,5.03
2023-08-30T16:01:18.795Z,5.43
2023-08-30T16:04:20.860Z,4.95
2023-08-30T16:07:22.575Z,4.72
2023-08-30T16:10:24.224Z,4.78
2023-08-30T16:13:26.487Z,5.70
2023-08-30T16:16:28.133Z,5.13
2023-08-30T16:19:29.735Z,5.43
2023-08-30T16:22:32.600Z,5.43
2023-08-30T16:25:34.117Z,5.45
2023-08-30T16:28:37.586Z,5.55
2023-08-30T16:31:39.373Z,5.70
2023-08-30T16:34:41.094Z,5.57
2023-08-30T16:37:42.612Z,5.47
2023-08-30T16:40:44.231Z,4.50
2023-08-30T16:43:45.793Z,4.13
2023-08-30T16:46:47.432Z,3.70
2023-08-30T16:49:48.998Z,3.33
2023-08-30T16:52:50.639Z,3.08
2023-08-30T16:55:52.175Z,3.08
2023-08-30T16:58:53.713Z,3.00
2023-08-30T17:01:55.557Z,2.72
2023-08-30T17:04:57.263Z,3.30
2023-08-30T17:07:58.813Z,3.10
2023-08-30T17:11:08.213Z,3.35
2023-08-30T17:14:12.195Z,3.10
2023-08-30T17:17:13.886Z,2.60
2023-08-30T17:20:15.733Z,2.45
2023-08-30T17:23:17.322Z,3.00
2023-08-30T17:26:19.815Z,2.80
2023-08-30T17:29:21.479Z,2.30
2023-08-30T17:32:23.108Z,2.40
2023-08-30T17:35:24.764Z,2.22
2023-08-30T17:38:26.392Z,2.35
2023-08-30T17:41:27.967Z,2.50
2023-08-30T17:44:29.584Z,2.03
2023-08-30T17:47:31.288Z,2.40
2023-08-30T17:50:32.879Z,2.10
2023-08-30T17:53:35.056Z,1.90
2023-08-30T17:56:36.640Z,1.90
2023-08-30T17:59:38.302Z,1.90
2023-08-30T18:02:40.089Z,1.80
2023-08-30T18:05:41.705Z,2.10
2023-08-30T18:08:45.704Z,1.90
2023-08-30T18:11:47.541Z,1.95
2023-08-30T18:14:49.475Z,1.75
2023-08-30T18:17:51.605Z,1.83
2023-08-30T18:20:53.239Z,1.90
2023-08-30T18:24:27.054Z,1.75
2023-08-30T18:27:28.597Z,1.75
2023-08-30T18:30:30.315Z,1.80
2023-08-30T18:33:31.888Z,1.60
2023-08-30T18:36:33.588Z,1.90
2023-08-30T18:39:35.774Z,1.70
2023-08-30T18:42:37.424Z,1.52
2023-08-30T18:45:48.596Z,1.70
2023-08-30T18:48:50.899Z,1.60
2023-08-30T18:51:52.418Z,1.50
2023-08-30T18:54:53.981Z,1.58
2023-08-30T18:57:55.558Z,1.40
2023-08-30T19:00:59.808Z,1.52
2023-08-30T19:04:01.757Z,1.65
2023-08-30T19:07:04.958Z,1.60
2023-08-30T19:10:09.470Z,1.55
2023-08-30T19:13:11.175Z,1.48
2023-08-30T19:16:15.823Z,1.35
2023-08-30T19:19:17.478Z,1.33
2023-08-30T19:22:21.837Z,1.50
2023-08-30T19:25:23.409Z,1.35
2023-08-30T19:28:25.132Z,1.42
2023-08-30T19:31:26.789Z,1.38
2023-08-30T19:34:28.433Z,1.50
2023-08-30T19:37:30.050Z,1.45
2023-08-30T19:40:31.643Z,1.38
2023-08-30T19:43:33.210Z,1.45
2023-08-30T19:46:34.866Z,1.40
2023-08-30T19:49:36.695Z,1.38
2023-08-30T19:52:38.212Z,1.55
2023-08-30T19:55:39.801Z,1.23
2023-08-30T19:58:41.338Z,1.45
2023-08-30T20:01:43.048Z,1.40
2023-08-30T20:04:44.652Z,1.30
2023-08-30T20:07:46.243Z,1.60
2023-08-30T20:10:48.136Z,1.30
2023-08-30T20:13:51.211Z,1.38
2023-08-30T20:16:52.886Z,1.40
2023-08-30T20:19:54.546Z,1.30
2023-08-30T20:22:56.112Z,1.40
2023-08-30T20:25:58.528Z,1.30
2023-08-30T20:29:01.300Z,1.40
2023-08-30T20:32:03.253Z,1.50
2023-08-30T20:35:06.300Z,1.30
2023-08-30T20:38:07.983Z,1.30
2023-08-30T20:41:09.595Z,1.40
2023-08-30T20:44:11.245Z,1.30
2023-08-30T20:47:13.827Z,1.30
2023-08-30T20:50:15.588Z,1.15
2023-08-30T20:53:17.298Z,1.40
2023-08-30T20:56:19.242Z,1.40
2023-08-30T20:59:21.274Z,1.20
2023-08-30T21:02:22.990Z,1.27
2023-08-30T21:05:24.487Z,1.27
2023-08-30T21:08:26.153Z,1.40
2023-08-30T21:11:27.834Z,1.30
2023-08-30T21:14:29.467Z,1.40
2023-08-30T21:17:31.080Z,1.30
2023-08-30T21:20:33.240Z,1.30
2023-08-30T21:23:34.832Z,1.40
2023-08-30T21:26:36.481Z,1.50
2023-08-30T21:29:37.982Z,1.30
2023-08-30T21:32:41.627Z,1.30
2023-08-30T21:35:45.370Z,1.33
2023-08-30T21:38:47.125Z,1.25
2023-08-30T21:41:48.686Z,1.40
2023-08-30T21:44:50.346Z,1.23
2023-08-30T21:47:52.102Z,1.30
2023-08-30T21:50:56.459Z,1.45
2023-08-30T21:53:58.195Z,1.20
2023-08-30T21:56:59.943Z,1.20
2023-08-30T22:00:01.555Z,1.20
2023-08-30T22:03:03.458Z,1.20
2023-08-30T22:06:06.759Z,1.02
2023-08-30T22:09:09.091Z,1.20
2023-08-30T22:12:10.824Z,1.75
2023-08-30T22:15:14.828Z,1.30
2023-08-30T22:18:16.381Z,1.30
2023-08-30T22:21:17.982Z,1.20
2023-08-30T22:24:19.506Z,1.15
2023-08-30T22:27:21.117Z,1.23
2023-08-30T22:30:22.841Z,1.20
2023-08-30T22:33:24.535Z,1.10
2023-08-30T22:36:26.199Z,1.20
2023-08-30T22:39:27.947Z,1.00
2023-08-30T22:42:29.511Z,1.27
2023-08-30T22:45:32.192Z,1.10
2023-08-30T22:48:33.716Z,1.23
2023-08-30T22:51:48.074Z,1.20
2023-08-30T22:54:55.428Z,1.10
2023-08-30T22:57:57.106Z,1.25
2023-08-30T23:01:04.147Z,1.30
2023-08-30T23:04:06.320Z,1.10
2023-08-30T23:07:07.989Z,1.20
2023-08-30T23:10:10.097Z,1.10
2023-08-30T23:13:11.993Z,1.20
2023-08-30T23:16:14.575Z,1.40
2023-08-30T23:19:16.179Z,1.13
2023-08-30T23:22:17.741Z,1.20
2023-08-30T23:25:19.732Z,1.30
2023-08-30T23:28:22.698Z,1.30
2023-08-30T23:31:24.617Z,1.20
2023-08-30T23:34:26.495Z,1.10
2023-08-30T23:37:28.228Z,1.10
2023-08-30T23:40:29.806Z,1.10
2023-08-30T23:43:31.402Z,1.30
2023-08-30T23:46:33.035Z,1.15
2023-08-30T23:49:34.824Z,1.08
2023-08-30T23:52:36.828Z,1.20
2023-08-30T23:55:38.617Z,1.20
2023-08-30T23:58:40.316Z,1.20
